createdAt,value
2019-04-03T00:00:17.546Z,100224.97
2019-04-03T00:02:46.116Z,100223.17
2019-04-03T00:05:14.687Z,100221.02
2019-04-03T00:07:43.528Z,100221.47
2019-04-03T00:10:12.701Z,100222.39
2019-04-03T00:12:41.374Z,100215.22
2019-04-03T00:15:11.699Z,100218.08
2019-04-03T00:17:40.986Z,100208.44
2019-04-03T00:20:09.981Z,100207.66
2019-04-03T00:22:38.514Z,100204.93
2019-04-03T00:25:07.410Z,100208.22
2019-04-03T00:27:36.166Z,100202.20
2019-04-03T00:30:06.384Z,100198.05
2019-04-03T00:32:35.060Z,100193.86
2019-04-03T00:35:04.793Z,100188.58
2019-04-03T00:37:33.439Z,100184.81
2019-04-03T00:40:02.045Z,100181.94
2019-04-03T00:42:30.741Z,100182.31
2019-04-03T00:44:59.459Z,100176.13
2019-04-03T00:47:28.164Z,100178.82
2019-04-03T00:49:57.145Z,100175.73
2019-04-03T00:52:27.502Z,100173.59
2019-04-03T00:54:57.103Z,100167.63
2019-04-03T00:57:26.316Z,100159.63
2019-04-03T00:59:56.414Z,100161.61
2019-04-03T01:02:27.824Z,100160.59
2019-04-03T01:04:58.099Z,100154.17
2019-04-03T01:07:28.810Z,100160.53
2019-04-03T01:09:57.799Z,100161.89
2019-04-03T01:12:30.622Z,100159.28
2019-04-03T01:14:58.294Z,100159.47
2019-04-03T01:17:26.853Z,100154.73
2019-04-03T01:19:55.411Z,100153.27
2019-04-03T01:22:23.973Z,100156.02
2019-04-03T01:24:52.651Z,100154.06
2019-04-03T01:27:21.315Z,100151.19
2019-04-03T01:29:49.978Z,100149.06
2019-04-03T01:32:18.632Z,100144.48
2019-04-03T01:34:47.947Z,100140.67
2019-04-03T01:37:18.159Z,100144.43
2019-04-03T01:39:47.225Z,100138.47
2019-04-03T01:42:15.809Z,100145.56
2019-04-03T01:44:44.571Z,100144.81
2019-04-03T01:47:13.227Z,100144.43
2019-04-03T01:49:41.892Z,100143.45
2019-04-03T01:52:10.451Z,100148.61
2019-04-03T01:54:40.192Z,100136.55
2019-04-03T01:57:08.860Z,100140.85
2019-04-03T01:59:37.948Z,100143.04
2019-04-03T02:02:08.477Z,100141.67
2019-04-03T02:04:37.469Z,100127.80
2019-04-03T02:07:06.037Z,100131.36
2019-04-03T02:09:34.786Z,100129.13
2019-04-03T02:12:03.464Z,100124.72
2019-04-03T02:14:32.112Z,100129.14
2019-04-03T02:17:00.683Z,100122.42
2019-04-03T02:19:29.241Z,100122.02
2019-04-03T02:21:58.518Z,100120.65
2019-04-03T02:24:27.881Z,100120.95
2019-04-03T02:26:56.444Z,100115.20
2019-04-03T02:29:25.158Z,100115.05
2019-04-03T02:31:53.975Z,100117.91
2019-04-03T02:34:22.493Z,100116.54
2019-04-03T02:36:51.197Z,100119.30
2019-04-03T02:39:19.849Z,100114.66
2019-04-03T02:41:48.814Z,100119.58
2019-04-03T02:44:19.145Z,100112.47
2019-04-03T02:46:48.022Z,100109.03
2019-04-03T02:49:16.545Z,100109.98
2019-04-03T02:51:46.043Z,100107.64
2019-04-03T02:54:26.466Z,100110.36
2019-04-03T02:56:56.275Z,100112.25
2019-04-03T02:59:25.959Z,100107.20
2019-04-03T03:01:55.571Z,100107.22
2019-04-03T03:04:24.889Z,100112.99
2019-04-03T03:06:53.895Z,100112.52
2019-04-03T03:09:22.824Z,100114.36
2019-04-03T03:11:54.870Z,100114.89
2019-04-03T03:14:22.876Z,100114.78
2019-04-03T03:16:52.073Z,100110.53
2019-04-03T03:19:22.341Z,100108.28
2019-04-03T03:21:54.644Z,100109.19
2019-04-03T03:24:23.933Z,100115.33
2019-04-03T03:26:52.971Z,100110.81
2019-04-03T03:29:25.396Z,100103.88
2019-04-03T03:32:10.914Z,100111.06
2019-04-03T03:34:47.472Z,100110.66
2019-04-03T03:37:00.144Z,100113.80
2019-04-03T03:39:27.741Z,100110.27
2019-04-03T03:41:58.189Z,100114.80
2019-04-03T03:44:28.278Z,100123.14
2019-04-03T03:47:01.466Z,100118.41
2019-04-03T03:49:29.124Z,100117.43
2019-04-03T03:52:02.608Z,100115.66
2019-04-03T03:54:30.788Z,100114.98
2019-04-03T03:57:04.349Z,100113.72
2019-04-03T03:59:30.844Z,100117.64
2019-04-03T04:02:03.241Z,100117.45
2019-04-03T04:04:30.606Z,100121.17
2019-04-03T04:07:02.040Z,100117.76
2019-04-03T04:09:30.343Z,100120.80
2019-04-03T04:11:59.289Z,100117.19
2019-04-03T04:14:28.321Z,100120.06
2019-04-03T04:16:57.375Z,100119.31
2019-04-03T04:19:30.196Z,100121.66
2019-04-03T04:21:57.458Z,100117.85
2019-04-03T04:24:28.298Z,100128.75
2019-04-03T04:26:57.005Z,100124.70
2019-04-03T04:29:25.653Z,100128.97
2019-04-03T04:31:54.331Z,100130.69
2019-04-03T04:34:23.002Z,100132.78
2019-04-03T04:36:53.076Z,100134.99
2019-04-03T04:39:22.163Z,100135.33
2019-04-03T04:41:50.812Z,100133.76
2019-04-03T04:44:19.409Z,100145.33
2019-04-03T04:46:48.108Z,100141.07
2019-04-03T04:49:16.719Z,100138.03
2019-04-03T04:51:45.305Z,100141.63
2019-04-03T04:54:13.949Z,100139.22
2019-04-03T04:56:43.043Z,100136.69
2019-04-03T04:59:13.530Z,100137.05
2019-04-03T05:01:42.349Z,100137.96
2019-04-03T05:04:11.053Z,100136.11
2019-04-03T05:06:39.720Z,100135.17
2019-04-03T05:09:08.501Z,100140.08
2019-04-03T05:11:39.065Z,100140.86
2019-04-03T05:14:07.972Z,100139.07
2019-04-03T05:16:36.779Z,100141.00
2019-04-03T05:19:10.008Z,100140.32
2019-04-03T05:21:36.160Z,100140.88
2019-04-03T05:24:11.481Z,100141.17
2019-04-03T05:26:36.303Z,100141.17
2019-04-03T05:29:05.095Z,100144.42
2019-04-03T05:31:33.751Z,100144.08
2019-04-03T05:34:02.721Z,100142.34
2019-04-03T05:36:31.415Z,100147.58
2019-04-03T05:39:02.585Z,100148.99
2019-04-03T05:41:30.857Z,100156.14
2019-04-03T05:44:01.459Z,100153.30
2019-04-03T05:46:30.111Z,100147.73
2019-04-03T05:48:58.760Z,100152.95
2019-04-03T05:51:29.153Z,100153.98
2019-04-03T05:53:58.031Z,100149.73
2019-04-03T05:56:26.618Z,100153.25
2019-04-03T05:58:57.242Z,100141.14
2019-04-03T06:01:25.897Z,100141.89
2019-04-03T06:03:54.550Z,100141.80
2019-04-03T06:06:23.341Z,100144.04
2019-04-03T06:08:52.074Z,100147.42
2019-04-03T06:11:21.190Z,100147.80
2019-04-03T06:13:50.350Z,100148.59
2019-04-03T06:16:19.096Z,100142.89
2019-04-03T06:18:48.238Z,100143.23
2019-04-03T06:21:17.049Z,100142.45
2019-04-03T06:23:45.727Z,100145.34
2019-04-03T06:26:14.349Z,100151.22
2019-04-03T06:28:44.960Z,100153.56
2019-04-03T06:31:13.671Z,100151.27
2019-04-03T06:33:42.374Z,100155.46
2019-04-03T06:36:10.944Z,100150.27
2019-04-03T06:38:39.492Z,100150.22
2019-04-03T06:41:09.085Z,100151.58
2019-04-03T06:43:38.047Z,100149.44
2019-04-03T06:46:06.828Z,100146.45
2019-04-03T06:48:36.502Z,100149.34
2019-04-03T06:51:06.065Z,100149.53
2019-04-03T06:53:34.809Z,100154.08
2019-04-03T06:56:07.666Z,100149.73
2019-04-03T06:58:38.627Z,100144.00
2019-04-03T07:01:06.309Z,100154.66
2019-04-03T07:03:35.146Z,100149.78
2019-04-03T07:06:03.819Z,100147.00
2019-04-03T07:08:35.649Z,100145.27
2019-04-03T07:11:03.056Z,100144.28
2019-04-03T07:13:31.830Z,100146.03
2019-04-03T07:16:00.622Z,100144.45
2019-04-03T07:18:29.321Z,100141.56
2019-04-03T07:20:57.972Z,100140.56
2019-04-03T07:23:28.977Z,100142.31
2019-04-03T07:25:57.343Z,100137.59
2019-04-03T07:28:25.922Z,100148.75
2019-04-03T07:30:54.582Z,100140.89
2019-04-03T07:33:23.378Z,100141.77
2019-04-03T07:35:52.062Z,100143.88
2019-04-03T07:38:21.837Z,100149.19
2019-04-03T07:40:52.370Z,100144.87
2019-04-03T07:43:21.551Z,100138.47
2019-04-03T07:45:50.218Z,100140.02
2019-04-03T07:48:18.869Z,100141.44
2019-04-03T07:50:47.838Z,100133.80
2019-04-03T07:53:17.834Z,100141.38
2019-04-03T07:55:47.152Z,100139.45
2019-04-03T07:58:15.849Z,100137.22
2019-04-03T08:00:44.515Z,100138.39
2019-04-03T08:03:13.295Z,100148.61
2019-04-03T08:05:41.955Z,100139.98
2019-04-03T08:08:10.635Z,100133.69
2019-04-03T08:10:39.411Z,100139.39
2019-04-03T08:13:07.985Z,100136.91
2019-04-03T08:15:36.660Z,100135.69
2019-04-03T08:18:05.440Z,100124.50
2019-04-03T08:20:34.230Z,100121.50
2019-04-03T08:23:05.969Z,100123.27
2019-04-03T08:25:33.683Z,100129.80
2019-04-03T08:28:02.384Z,100115.45
2019-04-03T08:30:31.142Z,100125.08
2019-04-03T08:32:59.727Z,100129.27
2019-04-03T08:35:28.655Z,100119.36
2019-04-03T08:37:57.369Z,100118.80
2019-04-03T08:40:26.016Z,100113.72
2019-04-03T08:42:54.683Z,100109.45
2019-04-03T08:45:23.364Z,100119.29
2019-04-03T08:47:52.321Z,100113.42
2019-04-03T08:50:21.324Z,100115.37
2019-04-03T08:52:50.165Z,100106.92
2019-04-03T08:55:18.809Z,100108.61
2019-04-03T08:57:47.367Z,100113.02
2019-04-03T09:00:16.626Z,100114.02
2019-04-03T09:02:45.442Z,100101.73
2019-04-03T09:05:14.697Z,100103.94
2019-04-03T09:07:44.110Z,100103.27
2019-04-03T09:10:13.186Z,100096.81
2019-04-03T09:12:42.068Z,100095.02
2019-04-03T09:15:11.321Z,100104.29
2019-04-03T09:17:39.990Z,100103.57
2019-04-03T09:20:08.910Z,100098.05
2019-04-03T09:22:37.560Z,100092.09
2019-04-03T09:25:07.066Z,100083.93
2019-04-03T09:27:35.904Z,100085.23
2019-04-03T09:30:07.525Z,100077.10
2019-04-03T09:32:37.428Z,100081.81
2019-04-03T09:35:08.191Z,100076.36
2019-04-03T09:37:38.107Z,100072.49
2019-04-03T09:40:07.306Z,100072.52
2019-04-03T09:42:36.156Z,100052.33
2019-04-03T09:45:06.184Z,100060.97
2019-04-03T09:47:35.670Z,100063.52
2019-04-03T09:50:05.703Z,100052.05
2019-04-03T09:52:41.513Z,100042.47
2019-04-03T09:55:05.759Z,100037.99
2019-04-03T09:57:34.432Z,100040.47
2019-04-03T10:00:05.513Z,100036.07
2019-04-03T10:02:34.543Z,100036.61
2019-04-03T10:05:04.548Z,100026.64
2019-04-03T10:07:36.003Z,100025.16
2019-04-03T10:10:05.385Z,100022.88
2019-04-03T10:12:34.326Z,100020.31
2019-04-03T10:15:04.058Z,100017.05
2019-04-03T10:17:32.603Z,100013.08
2019-04-03T10:20:01.490Z,100007.00
2019-04-03T10:22:30.572Z,100004.50
2019-04-03T10:25:00.614Z,99993.66
2019-04-03T10:27:30.280Z,99997.02
2019-04-03T10:29:58.998Z,99998.72
2019-04-03T10:32:28.502Z,99992.57
2019-04-03T10:34:57.836Z,99989.44
2019-04-03T10:37:26.870Z,99987.33
2019-04-03T10:39:55.957Z,99985.81
2019-04-03T10:42:24.802Z,99980.13
2019-04-03T10:44:53.540Z,99983.19
2019-04-03T10:47:25.320Z,99971.31
2019-04-03T10:49:52.757Z,99966.97
2019-04-03T10:52:21.532Z,99954.28
2019-04-03T10:54:50.480Z,99953.77
2019-04-03T10:57:19.186Z,99948.16
2019-04-03T10:59:51.924Z,99952.22
2019-04-03T11:02:18.577Z,99946.35
2019-04-03T11:04:47.510Z,99947.86
2019-04-03T11:07:16.892Z,99949.91
2019-04-03T11:09:45.663Z,99940.71
2019-04-03T11:12:14.746Z,99937.80
2019-04-03T11:14:43.857Z,99928.92
2019-04-03T11:17:12.654Z,99923.09
2019-04-03T11:19:44.101Z,99918.80
2019-04-03T11:22:12.078Z,99916.03
2019-04-03T11:24:42.505Z,99902.58
2019-04-03T11:27:11.342Z,99899.11
2019-04-03T11:29:41.910Z,99891.45
2019-04-03T11:32:10.840Z,99897.21
2019-04-03T11:34:39.629Z,99890.11
2019-04-03T11:37:08.403Z,99886.33
2019-04-03T11:39:37.818Z,99882.89
2019-04-03T11:42:06.832Z,99876.89
2019-04-03T11:44:35.363Z,99868.52
2019-04-03T11:47:04.504Z,99866.28
2019-04-03T11:49:33.286Z,99863.66
2019-04-03T11:52:02.269Z,99861.61
2019-04-03T11:54:31.112Z,99853.73
2019-04-03T11:56:59.924Z,99851.36
2019-04-03T11:59:28.757Z,99842.41
2019-04-03T12:01:57.623Z,99838.73
2019-04-03T12:04:26.952Z,99843.98
2019-04-03T12:06:55.804Z,99838.53
2019-04-03T12:09:24.957Z,99838.74
2019-04-03T12:11:54.985Z,99831.80
2019-04-03T12:14:24.257Z,99828.70
2019-04-03T12:16:53.117Z,99828.98
2019-04-03T12:19:21.975Z,99825.08
2019-04-03T12:21:51.296Z,99824.83
2019-04-03T12:24:20.334Z,99822.50
2019-04-03T12:26:51.739Z,99815.30
2019-04-03T12:29:21.904Z,99815.22
2019-04-03T12:31:51.234Z,99816.85
2019-04-03T12:34:22.993Z,99807.14
2019-04-03T12:36:51.516Z,99799.83
2019-04-03T12:39:26.944Z,99794.78
2019-04-03T12:41:57.231Z,99799.45
2019-04-03T12:44:26.591Z,99784.22
2019-04-03T12:46:55.749Z,99781.31
2019-04-03T12:49:25.067Z,99784.48
2019-04-03T12:51:53.937Z,99777.33
2019-04-03T12:54:22.613Z,99781.46
2019-04-03T12:56:51.431Z,99774.28
2019-04-03T12:59:21.031Z,99770.61
2019-04-03T13:01:50.746Z,99762.18
2019-04-03T13:04:20.088Z,99759.47
2019-04-03T13:06:49.053Z,99763.00
2019-04-03T13:09:18.389Z,99762.98
2019-04-03T13:11:49.802Z,99762.26
2019-04-03T13:14:25.106Z,99757.80
2019-04-03T13:16:48.876Z,99757.90
2019-04-03T13:19:17.622Z,99751.63
2019-04-03T13:21:46.276Z,99745.54
2019-04-03T13:24:17.105Z,99735.42
2019-04-03T13:26:45.960Z,99743.47
2019-04-03T13:29:14.694Z,99738.56
2019-04-03T13:31:44.458Z,99734.44
2019-04-03T13:34:14.346Z,99729.50
2019-04-03T13:36:43.240Z,99734.92
2019-04-03T13:39:12.418Z,99722.07
2019-04-03T13:41:42.476Z,99723.18
2019-04-03T13:44:11.711Z,99722.47
2019-04-03T13:46:40.377Z,99718.47
2019-04-03T13:49:09.448Z,99711.91
2019-04-03T13:51:38.415Z,99715.08
2019-04-03T13:54:08.188Z,99715.45
2019-04-03T13:56:37.916Z,99706.45
2019-04-03T13:59:06.880Z,99712.58
2019-04-03T14:01:35.761Z,99714.14
2019-04-03T14:04:04.891Z,99710.83
2019-04-03T14:06:35.918Z,99701.02
2019-04-03T14:09:06.469Z,99705.80
2019-04-03T14:11:35.541Z,99703.35
2019-04-03T14:14:04.362Z,99697.88
2019-04-03T14:16:34.897Z,99692.73
2019-04-03T14:19:04.139Z,99701.41
2019-04-03T14:21:35.561Z,99701.00
2019-04-03T14:24:07.073Z,99692.47
2019-04-03T14:26:34.539Z,99696.02
2019-04-03T14:29:05.720Z,99690.06
2019-04-03T14:31:37.350Z,99692.59
2019-04-03T14:34:05.156Z,99690.66
2019-04-03T14:36:34.713Z,99683.81
2019-04-03T14:39:08.757Z,99690.17
2019-04-03T14:41:36.683Z,99686.87
2019-04-03T14:44:07.785Z,99686.40
2019-04-03T14:46:36.303Z,99683.81
2019-04-03T14:49:04.941Z,99685.92
2019-04-03T14:51:33.736Z,99686.93
2019-04-03T14:54:03.266Z,99693.59
2019-04-03T14:56:33.250Z,99686.55
2019-04-03T14:59:02.651Z,99678.59
2019-04-03T15:01:31.317Z,99690.05
2019-04-03T15:04:01.139Z,99691.43
2019-04-03T15:06:30.340Z,99680.70
2019-04-03T15:08:59.167Z,99680.97
2019-04-03T15:11:27.869Z,99678.54
2019-04-03T15:13:57.403Z,99676.07
2019-04-03T15:16:26.435Z,99671.38
2019-04-03T15:18:55.053Z,99673.17
2019-04-03T15:21:24.793Z,99666.88
2019-04-03T15:23:54.170Z,99670.78
2019-04-03T15:26:23.128Z,99662.70
2019-04-03T15:28:52.560Z,99664.38
2019-04-03T15:31:23.877Z,99666.30
2019-04-03T15:33:53.039Z,99666.80
2019-04-03T15:36:22.757Z,99663.70
2019-04-03T15:38:51.451Z,99668.20
2019-04-03T15:41:20.654Z,99668.48
2019-04-03T15:43:51.337Z,99668.13
2019-04-03T15:46:19.952Z,99670.05
2019-04-03T15:48:48.807Z,99659.53
2019-04-03T15:51:17.794Z,99660.19
2019-04-03T15:53:46.941Z,99658.87
2019-04-03T15:56:16.738Z,99665.28
2019-04-03T15:58:45.667Z,99661.09
2019-04-03T16:01:14.396Z,99664.89
2019-04-03T16:03:43.329Z,99661.98
2019-04-03T16:06:12.046Z,99658.99
2019-04-03T16:08:43.657Z,99662.44
2019-04-03T16:11:11.515Z,99656.78
2019-04-03T16:13:40.164Z,99660.31
2019-04-03T16:16:09.456Z,99658.46
2019-04-03T16:18:38.991Z,99658.31
2019-04-03T16:21:07.883Z,99656.22
2019-04-03T16:23:38.188Z,99659.27
2019-04-03T16:26:07.802Z,99655.47
2019-04-03T16:28:37.178Z,99647.06
2019-04-03T16:31:06.321Z,99655.63
2019-04-03T16:33:35.715Z,99654.61
2019-04-03T16:36:06.893Z,99651.64
2019-04-03T16:38:36.472Z,99651.67
2019-04-03T16:41:05.861Z,99659.20
2019-04-03T16:43:34.712Z,99656.94
2019-04-03T16:46:03.537Z,99650.22
2019-04-03T16:48:32.228Z,99649.53
2019-04-03T16:51:01.593Z,99658.62
2019-04-03T16:53:30.361Z,99660.09
2019-04-03T16:55:58.896Z,99659.56
2019-04-03T16:58:27.971Z,99654.64
2019-04-03T17:00:56.596Z,99661.05
2019-04-03T17:03:27.345Z,99662.31
2019-04-03T17:05:56.498Z,99658.69
2019-04-03T17:08:25.961Z,99664.18
2019-04-03T17:10:56.242Z,99670.03
2019-04-03T17:13:25.590Z,99670.02
2019-04-03T17:15:55.074Z,99674.40
2019-04-03T17:18:23.834Z,99673.28
2019-04-03T17:20:53.211Z,99680.09
2019-04-03T17:23:23.388Z,99679.88
2019-04-03T17:25:52.428Z,99680.63
2019-04-03T17:28:21.228Z,99680.95
2019-04-03T17:30:51.524Z,99690.47
2019-04-03T17:33:21.247Z,99688.55
2019-04-03T17:35:50.238Z,99691.73
2019-04-03T17:38:19.123Z,99695.02
2019-04-03T17:40:47.970Z,99705.23
2019-04-03T17:43:17.029Z,99708.90
2019-04-03T17:45:46.949Z,99708.29
2019-04-03T17:48:15.657Z,99714.91
2019-04-03T17:50:44.598Z,99716.89
2019-04-03T17:53:13.353Z,99717.98
2019-04-03T17:55:45.273Z,99723.74
2019-04-03T17:58:16.537Z,99724.91
2019-04-03T18:00:44.147Z,99728.56
2019-04-03T18:03:12.900Z,99730.46
2019-04-03T18:05:41.568Z,99734.75
2019-04-03T18:08:10.911Z,99730.28
2019-04-03T18:10:40.847Z,99735.08
2019-04-03T18:13:10.339Z,99736.94
2019-04-03T18:15:39.098Z,99738.48
2019-04-03T18:18:08.000Z,99740.98
2019-04-03T18:20:36.521Z,99741.36
2019-04-03T18:23:05.270Z,99748.11
2019-04-03T18:25:34.674Z,99747.13
2019-04-03T18:28:05.378Z,99749.80
2019-04-03T18:30:34.401Z,99749.40
2019-04-03T18:33:05.551Z,99756.06
2019-04-03T18:35:34.040Z,99751.33
2019-04-03T18:38:03.031Z,99753.06
2019-04-03T18:40:31.704Z,99754.38
2019-04-03T18:43:00.861Z,99757.80
2019-04-03T18:45:29.508Z,99764.75
2019-04-03T18:47:58.354Z,99765.11
2019-04-03T18:50:27.482Z,99769.19
2019-04-03T18:52:56.660Z,99764.08
2019-04-03T18:55:25.327Z,99770.76
2019-04-03T18:57:54.010Z,99771.38
2019-04-03T19:00:22.716Z,99771.28
2019-04-03T19:02:51.495Z,99764.72
2019-04-03T19:05:20.444Z,99765.06
2019-04-03T19:07:49.022Z,99770.09
2019-04-03T19:10:18.679Z,99777.61
2019-04-03T19:12:48.335Z,99767.33
2019-04-03T19:15:17.187Z,99771.23
2019-04-03T19:17:59.013Z,99768.45
2019-04-03T19:20:17.984Z,99772.53
2019-04-03T19:22:46.639Z,99772.86
2019-04-03T19:25:15.466Z,99782.77
2019-04-03T19:27:44.100Z,99785.27
2019-04-03T19:30:14.836Z,99787.58
2019-04-03T19:32:44.114Z,99792.92
2019-04-03T19:35:13.197Z,99793.67
2019-04-03T19:37:45.061Z,99788.90
2019-04-03T19:40:13.501Z,99791.98
2019-04-03T19:42:43.850Z,99794.64
2019-04-03T19:45:13.387Z,99794.77
2019-04-03T19:47:42.134Z,99801.45
2019-04-03T19:50:11.430Z,99801.59
2019-04-03T19:52:42.185Z,99808.40
2019-04-03T19:55:10.831Z,99807.00
2019-04-03T19:57:39.868Z,99806.92
2019-04-03T20:00:11.266Z,99809.36
2019-04-03T20:02:43.125Z,99810.58
2019-04-03T20:05:11.416Z,99814.01
2019-04-03T20:07:40.077Z,99817.77
2019-04-03T20:10:09.324Z,99818.22
2019-04-03T20:12:38.482Z,99819.95
2019-04-03T20:15:09.167Z,99823.20
2019-04-03T20:17:37.897Z,99835.29
2019-04-03T20:20:07.025Z,99834.14
2019-04-03T20:22:37.426Z,99838.48
2019-04-03T20:25:07.445Z,99841.39
2019-04-03T20:27:36.600Z,99844.67
2019-04-03T20:30:06.041Z,99843.81
2019-04-03T20:32:34.587Z,99851.39
2019-04-03T20:35:04.309Z,99854.95
2019-04-03T20:37:33.066Z,99856.66
2019-04-03T20:40:01.756Z,99860.28
2019-04-03T20:42:30.592Z,99858.83
2019-04-03T20:44:59.227Z,99862.23
2019-04-03T20:47:28.120Z,99862.86
2019-04-03T20:49:57.159Z,99869.61
2019-04-03T20:52:25.733Z,99868.36
2019-04-03T20:54:54.377Z,99868.17
2019-04-03T20:57:23.247Z,99863.51
2019-04-03T21:00:01.652Z,99868.14
2019-04-03T21:02:22.911Z,99872.19
2019-04-03T21:04:52.197Z,99877.03
2019-04-03T21:07:23.623Z,99874.67
2019-04-03T21:09:51.717Z,99873.57
2019-04-03T21:12:20.376Z,99875.19
2019-04-03T21:14:49.392Z,99881.06
2019-04-03T21:17:19.032Z,99877.97
2019-04-03T21:19:49.954Z,99875.34
2019-04-03T21:22:18.916Z,99882.02
2019-04-03T21:24:47.534Z,99887.17
2019-04-03T21:27:16.314Z,99890.14
2019-04-03T21:29:45.603Z,99887.72
2019-04-03T21:32:14.460Z,99889.48
2019-04-03T21:34:43.126Z,99886.28
2019-04-03T21:37:13.979Z,99891.96
2019-04-03T21:39:43.795Z,99891.28
2019-04-03T21:42:13.237Z,99883.59
2019-04-03T21:44:42.343Z,99887.20
2019-04-03T21:47:11.738Z,99885.81
2019-04-03T21:49:41.362Z,99883.68
2019-04-03T21:52:10.280Z,99892.71
2019-04-03T21:54:38.939Z,99890.62
2019-04-03T21:57:07.682Z,99888.52
2019-04-03T21:59:36.527Z,99888.66
2019-04-03T22:02:05.071Z,99885.03
2019-04-03T22:04:34.150Z,99881.50
2019-04-03T22:07:03.016Z,99884.61
2019-04-03T22:09:32.072Z,99880.39
2019-04-03T22:12:01.060Z,99885.30
2019-04-03T22:14:29.723Z,99895.47
2019-04-03T22:16:58.478Z,99893.45
2019-04-03T22:19:27.691Z,99888.69
2019-04-03T22:21:56.875Z,99893.02
2019-04-03T22:24:25.532Z,99895.06
2019-04-03T22:26:54.151Z,99894.84
2019-04-03T22:29:22.798Z,99901.23
2019-04-03T22:31:53.639Z,99899.17
2019-04-03T22:34:22.141Z,99896.02
2019-04-03T22:36:50.775Z,99893.92
2019-04-03T22:39:19.424Z,99901.64
2019-04-03T22:41:48.281Z,99896.68
2019-04-03T22:44:17.662Z,99893.86
2019-04-03T22:46:46.485Z,99893.86
2019-04-03T22:49:15.126Z,99895.68
2019-04-03T22:51:43.695Z,99899.30
2019-04-03T22:54:12.758Z,99894.81
2019-04-03T22:56:41.908Z,99898.45
2019-04-03T22:59:10.575Z,99895.41
2019-04-03T23:01:39.397Z,99900.44
2019-04-03T23:04:08.061Z,99898.45
2019-04-03T23:06:36.613Z,99891.05
2019-04-03T23:09:06.796Z,99887.95
2019-04-03T23:11:35.363Z,99888.77
2019-04-03T23:14:06.797Z,99883.16
2019-04-03T23:16:35.478Z,99885.32
2019-04-03T23:19:04.018Z,99886.09
2019-04-03T23:21:32.567Z,99882.48
2019-04-03T23:24:01.333Z,99885.53
2019-04-03T23:26:32.162Z,99890.71
2019-04-03T23:29:00.642Z,99885.32
2019-04-03T23:31:29.207Z,99881.81
2019-04-03T23:33:58.162Z,99881.30
2019-04-03T23:36:26.814Z,99882.20
2019-04-03T23:38:56.707Z,99879.86
2019-04-03T23:41:25.758Z,99873.89
2019-04-03T23:43:54.300Z,99878.43
2019-04-03T23:46:22.967Z,99888.48
2019-04-03T23:48:51.548Z,99876.50
2019-04-03T23:51:23.249Z,99870.03
2019-04-03T23:53:51.075Z,99871.62
2019-04-03T23:56:19.731Z,99868.59
2019-04-03T23:58:48.380Z,99870.30
